Time;durP1;ratioP1;P1;durP2;ratioP2;P2;SDS_P1;SDS_P2;PMS_P1;PMS_P2;Temp;Humidity;BMP_temperature;BMP_pressure;BME280_temperature;BME280_humidity;BME280_pressure;Samples;Min_cycle;Max_cycle;Signal;HPM_P1;HPM_P2
2022/09/19 00:01:35;;;;;;;12.02;6.10;;;;;;;9.32;100.00;102013.78;5005639;28;20449;-74
2022/09/19 00:04:02;;;;;;;10.23;5.97;;;;;;;9.31;100.00;102012.06;5003827;28;20092;-77
2022/09/19 00:06:29;;;;;;;12.98;8.02;;;;;;;9.44;100.00;102028.78;5000876;28;20032;-76
2022/09/19 00:08:57;;;;;;;14.32;6.43;;;;;;;9.44;100.00;102031.47;5005884;28;20038;-74
2022/09/19 00:11:23;;;;;;;9.25;6.07;;;;;;;9.44;100.00;102023.41;4988074;28;20038;-74
2022/09/19 00:13:50;;;;;;;13.57;7.75;;;;;;;9.58;100.00;102025.72;5002304;28;20026;-74
2022/09/19 00:16:24;;;;;;;15.20;8.35;;;;;;;9.63;100.00;102030.66;4999095;28;20076;-75
2022/09/19 00:18:51;;;;;;;;;;;;;;;9.66;100.00;102028.56;5009640;28;20492;-74
2022/09/19 00:21:43;;;;;;;11.40;7.05;;;;;;;9.66;100.00;102025.88;4994771;28;19925;-75
2022/09/19 00:26:55;;;;;;;15.43;8.13;;;;;;;9.60;100.00;102021.03;4993746;28;20008;-75
2022/09/19 00:29:21;;;;;;;15.82;9.20;;;;;;;9.56;100.00;102021.47;4995107;28;20026;-77
2022/09/19 00:31:46;;;;;;;22.10;9.93;;;;;;;9.56;100.00;102025.00;4976317;28;20046;-77
2022/09/19 00:34:13;;;;;;;20.08;9.40;;;;;;;9.46;100.00;102011.53;4991472;28;20034;-74
2022/09/19 00:36:40;;;;;;;20.48;9.00;;;;;;;9.44;100.00;102016.19;5010821;28;20033;-76
2022/09/19 00:39:07;;;;;;;22.02;10.57;;;;;;;9.29;100.00;102017.59;5007675;28;20022;-75
2022/09/19 00:41:33;;;;;;;12.90;7.25;;;;;;;9.11;100.00;102006.66;5007781;28;20104;-75
2022/09/19 00:44:05;;;;;;;13.02;8.10;;;;;;;9.16;100.00;102030.41;4985643;28;20353;-77
2022/09/19 00:46:35;;;;;;;14.57;8.30;;;;;;;9.13;100.00;102025.28;5009119;28;20030;-76
2022/09/19 00:49:05;;;;;;;17.48;9.40;;;;;;;9.14;100.00;102025.16;5010697;28;20168;-76
2022/09/19 00:51:32;;;;;;;17.27;8.75;;;;;;;9.13;100.00;102031.53;5006220;28;20136;-75
2022/09/19 00:54:05;;;;;;;19.73;8.50;;;;;;;9.10;100.00;102018.34;4985522;28;20042;-75
2022/09/19 00:56:32;;;;;;;12.63;7.07;;;;;;;9.08;100.00;102023.03;4966827;28;20049;-76
2022/09/19 00:58:58;;;;;;;13.63;7.03;;;;;;;9.02;100.00;102020.84;4988306;28;20080;-77
2022/09/19 01:01:24;;;;;;;16.92;7.90;;;;;;;8.90;100.00;102013.91;4986689;28;20030;-76
2022/09/19 01:03:52;;;;;;;13.27;6.18;;;;;;;8.75;100.00;102014.25;4978291;28;20037;-77
2022/09/19 01:06:35;;;;;;;13.48;7.15;;;;;;;8.61;100.00;102011.06;5009101;28;20125;-76
2022/09/19 01:09:15;;;;;;;10.73;6.55;;;;;;;8.59;100.00;102021.91;5007101;28;20034;-75
2022/09/19 01:11:56;;;;;;;11.07;6.65;;;;;;;8.60;100.00;102023.63;5006166;28;20041;-75
2022/09/19 01:14:43;;;;;;;11.30;6.30;;;;;;;8.67;100.00;102015.91;5009597;28;20109;-78
2022/09/19 01:17:20;;;;;;;11.57;6.47;;;;;;;8.66;100.00;102016.88;4983524;28;20030;-78
2022/09/19 01:19:55;;;;;;;11.75;6.75;;;;;;;8.68;100.00;102026.50;5007088;28;20061;-76
2022/09/19 01:22:53;;;;;;;10.93;5.55;;;;;;;8.70;100.00;102021.84;5007309;28;20419;-77
2022/09/19 01:25:23;;;;;;;11.30;6.20;;;;;;;8.71;100.00;102025.38;4991546;28;20140;-77
2022/09/19 01:28:08;;;;;;;15.25;6.60;;;;;;;8.69;100.00;102021.97;4972850;28;20459;-75
2022/09/19 01:30:37;;;;;;;11.35;6.28;;;;;;;8.60;100.00;102012.91;5003931;28;20046;-79
2022/09/19 01:33:10;;;;;;;13.52;6.28;;;;;;;8.69;100.00;102024.66;5006942;28;20416;-77
2022/09/19 01:35:38;;;;;;;9.52;5.50;;;;;;;8.69;100.00;102019.31;5005578;28;20100;-77
2022/09/19 01:38:12;;;;;;;12.00;6.65;;;;;;;8.61;100.00;102008.38;4989489;28;20099;-76
2022/09/19 01:40:39;;;;;;;9.70;6.30;;;;;;;8.64;100.00;102016.16;4981765;28;20034;-75
2022/09/19 01:43:12;;;;;;;10.32;6.32;;;;;;;8.56;100.00;102000.75;5016505;28;20064;-77
2022/09/19 01:45:38;;;;;;;10.27;6.17;;;;;;;8.57;100.00;101999.75;5007159;28;20242;-75
2022/09/19 01:48:27;;;;;;;10.05;5.10;;;;;;;8.50;100.00;102001.28;4996490;28;20476;-75
2022/09/19 01:51:16;;;;;;;13.25;6.13;;;;;;;8.46;100.00;101997.13;4988215;28;20024;-77
2022/09/19 01:53:46;;;;;;;9.20;5.32;;;;;;;8.47;100.00;101996.19;5004948;28;20045;-75
2022/09/19 01:56:36;;;;;;;9.88;5.30;;;;;;;8.44;100.00;101994.63;5006702;28;20033;-74
2022/09/19 01:59:45;;;;;;;12.45;5.95;;;;;;;8.35;100.00;101976.59;5007894;28;20080;-74
2022/09/19 02:02:13;;;;;;;8.93;5.55;;;;;;;8.35;100.00;101988.16;5007874;28;20053;-73
2022/09/19 02:04:43;;;;;;;12.23;5.57;;;;;;;8.16;100.00;101980.00;4969334;28;20045;-77
2022/09/19 02:07:23;;;;;;;11.23;6.35;;;;;;;8.15;100.00;101979.16;4970672;28;20033;-77
2022/09/19 02:10:05;;;;;;;9.23;5.60;;;;;;;8.18;100.00;101978.03;5001257;28;20072;-77
2022/09/19 02:12:32;;;;;;;8.27;5.07;;;;;;;8.15;100.00;101981.00;5007211;28;20037;-76
2022/09/19 02:15:00;;;;;;;9.60;5.85;;;;;;;8.18;100.00;101985.22;4976506;28;20054;-76
2022/09/19 02:17:44;;;;;;;9.20;5.60;;;;;;;8.10;100.00;101975.16;4991847;28;20033;-77
2022/09/19 02:20:33;;;;;;;8.60;5.13;;;;;;;8.03;100.00;101971.28;4977723;28;20053;-77
2022/09/19 02:23:05;;;;;;;8.85;5.50;;;;;;;7.91;100.00;101971.34;4992714;28;20030;-76
2022/09/19 02:25:33;;;;;;;10.13;5.63;;;;;;;7.84;100.00;101967.50;4990258;28;20453;-77
2022/09/19 02:28:18;;;;;;;8.63;5.60;;;;;;;7.72;100.00;101966.66;4976856;28;20124;-77
2022/09/19 02:30:44;;;;;;;8.90;5.43;;;;;;;7.62;100.00;101967.56;4973683;28;20029;-75
2022/09/19 02:33:11;;;;;;;9.30;4.80;;;;;;;7.47;100.00;101962.50;4987189;28;20038;-75
2022/09/19 02:35:43;;;;;;;6.88;4.32;;;;;;;7.35;100.00;101963.50;5008695;28;20041;-77
2022/09/19 02:38:25;;;;;;;6.22;4.35;;;;;;;7.30;100.00;101970.19;4985221;28;20054;-76
2022/09/19 02:41:21;;;;;;;8.57;4.35;;;;;;;7.26;100.00;101964.25;5016767;28;20419;-75
2022/09/19 02:43:47;;;;;;;7.20;4.10;;;;;;;7.19;100.00;101958.53;4970836;28;20606;-77
2022/09/19 02:46:21;;;;;;;7.70;4.15;;;;;;;7.09;100.00;101965.59;5000734;28;20117;-74
2022/09/19 02:49:09;;;;;;;5.80;3.58;;;;;;;7.09;100.00;101959.41;4983511;28;20389;-78
2022/09/19 02:51:45;;;;;;;7.75;3.75;;;;;;;7.17;100.00;101963.19;4999014;28;20133;-75
2022/09/19 02:54:16;;;;;;;5.95;3.65;;;;;;;7.13;100.00;101955.53;4973146;28;20049;-76
2022/09/19 02:56:43;;;;;;;6.18;3.90;;;;;;;7.16;100.00;101960.63;4986570;28;20128;-75
2022/09/19 02:59:13;;;;;;;7.63;4.20;;;;;;;7.15;100.00;101966.97;4969973;28;20041;-75
2022/09/19 03:01:41;;;;;;;6.00;4.30;;;;;;;7.11;100.00;101961.00;5002043;28;20022;-75
2022/09/19 03:04:14;;;;;;;8.65;4.07;;;;;;;7.00;100.00;101950.31;5002009;28;20096;-75
2022/09/19 03:06:49;;;;;;;8.75;4.10;;;;;;;7.10;100.00;101967.31;4991373;28;20096;-76
2022/09/19 03:09:18;;;;;;;8.07;4.65;;;;;;;7.00;100.00;101953.00;4988869;28;20450;-75
2022/09/19 03:11:50;;;;;;;6.15;4.43;;;;;;;6.98;100.00;101961.13;4985517;28;20442;-76
2022/09/19 03:14:20;;;;;;;5.65;3.92;;;;;;;6.79;100.00;101944.88;4994747;28;20041;-76
2022/09/19 03:16:48;;;;;;;9.20;3.70;;;;;;;6.71;100.00;101945.47;4988136;28;20034;-75
2022/09/19 03:19:13;;;;;;;11.30;3.83;;;;;;;6.77;100.00;101958.38;5019830;28;20029;-75
2022/09/19 03:21:41;;;;;;;7.35;4.38;;;;;;;6.75;100.00;101948.78;4964323;28;20057;-75
2022/09/19 03:24:07;;;;;;;6.15;3.75;;;;;;;6.72;100.00;101957.00;4950368;28;1573826;-75
2022/09/19 03:26:35;;;;;;;6.13;3.92;;;;;;;6.63;100.00;101961.25;5004479;28;20310;-75
2022/09/19 03:29:03;;;;;;;5.10;3.63;;;;;;;6.48;100.00;101952.59;5002327;28;20030;-74
2022/09/19 03:31:29;;;;;;;6.25;3.75;;;;;;;6.43;100.00;101954.81;5005590;28;20046;-75
2022/09/19 03:33:57;;;;;;;7.35;4.53;;;;;;;6.39;100.00;101956.00;5000786;28;20137;-76
2022/09/19 03:36:28;;;;;;;7.25;3.75;;;;;;;6.34;100.00;101934.16;5005140;28;20516;-76
2022/09/19 03:39:00;;;;;;;6.32;3.72;;;;;;;6.41;100.00;101954.09;4990115;28;20034;-75
2022/09/19 03:41:26;;;;;;;5.65;3.60;;;;;;;6.45;100.00;101952.84;4981402;28;20050;-76
2022/09/19 03:43:51;;;;;;;9.20;3.75;;;;;;;6.46;100.00;101951.91;5006138;28;20040;-75
2022/09/19 03:46:22;;;;;;;6.88;3.58;;;;;;;6.38;100.00;101967.69;4989574;28;20042;-74
2022/09/19 03:48:48;;;;;;;4.43;3.00;;;;;;;6.19;100.00;101968.22;4992160;28;20112;-75
2022/09/19 03:51:16;;;;;;;5.68;2.95;;;;;;;5.92;100.00;101952.47;5007794;28;20045;-76
2022/09/19 03:53:42;;;;;;;7.07;3.22;;;;;;;5.77;100.00;101964.28;4989760;28;20049;-75
2022/09/19 03:56:11;;;;;;;4.55;2.53;;;;;;;5.70;100.00;101972.75;4969842;28;20038;-75
2022/09/19 03:58:38;;;;;;;6.50;2.83;;;;;;;5.69;100.00;101964.88;5015117;28;20038;-75
2022/09/19 04:01:06;;;;;;;4.95;3.00;;;;;;;5.73;100.00;101972.53;4988252;28;20489;-74
2022/09/19 04:03:33;;;;;;;13.50;3.45;;;;;;;5.69;100.00;101952.41;5003060;28;20045;-75
2022/09/19 04:06:00;;;;;;;5.93;2.95;;;;;;;5.83;100.00;101963.84;5007378;28;20112;-75
2022/09/19 04:08:26;;;;;;;4.32;3.05;;;;;;;5.87;100.00;101966.16;5001560;28;20045;-78
2022/09/19 04:10:52;;;;;;;6.45;2.70;;;;;;;5.80;100.00;101969.41;4992837;28;20095;-75
2022/09/19 04:13:20;;;;;;;3.72;2.55;;;;;;;5.79;100.00;101960.53;5010045;28;20114;-76
2022/09/19 04:15:46;;;;;;;5.60;2.97;;;;;;;5.75;100.00;101963.56;4987904;28;20077;-74
2022/09/19 04:18:12;;;;;;;4.00;2.75;;;;;;;5.60;100.00;101949.56;4975460;28;20464;-76
2022/09/19 04:20:39;;;;;;;11.23;2.70;;;;;;;5.55;100.00;101949.88;4986323;28;20039;-74
2022/09/19 04:23:05;;;;;;;12.77;2.85;;;;;;;5.59;100.00;101961.19;5008546;28;20037;-78
2022/09/19 04:25:34;;;;;;;12.90;2.35;;;;;;;5.51;100.00;101969.78;4993085;28;20416;-75
2022/09/19 04:28:05;;;;;;;3.53;2.20;;;;;;;5.35;100.00;101962.03;5005936;28;20068;-75
2022/09/19 04:30:35;;;;;;;11.63;2.60;;;;;;;5.30;100.00;101966.84;4990553;28;20134;-76
2022/09/19 04:33:03;;;;;;;6.97;2.28;;;;;;;5.23;100.00;101966.44;4970985;28;20037;-74
2022/09/19 04:35:35;;;;;;;3.47;2.40;;;;;;;5.10;100.00;101962.97;4989714;28;20269;-75
2022/09/19 04:38:02;;;;;;;3.25;2.15;;;;;;;5.02;100.00;101966.16;5001740;28;20030;-75
2022/09/19 04:40:28;;;;;;;7.68;2.17;;;;;;;4.95;100.00;101966.72;5009077;28;20061;-75
2022/09/19 04:42:54;;;;;;;11.98;2.22;;;;;;;4.89;100.00;101962.69;4993053;28;20333;-75
2022/09/19 04:45:20;;;;;;;6.65;2.10;;;;;;;4.81;100.00;101955.22;4984277;28;20491;-75
2022/09/19 04:47:47;;;;;;;4.40;2.08;;;;;;;4.76;100.00;101959.19;4975653;28;20042;-74
2022/09/19 04:50:14;;;;;;;4.07;2.03;;;;;;;4.76;100.00;101959.19;5005183;28;20117;-75
2022/09/19 04:52:41;;;;;;;5.18;2.15;;;;;;;4.72;100.00;101955.88;5005860;28;20127;-78
2022/09/19 04:55:08;;;;;;;5.32;2.03;;;;;;;4.81;100.00;101962.38;5005035;28;20022;-75
2022/09/19 04:57:34;;;;;;;6.53;2.20;;;;;;;4.90;100.00;101964.41;4988317;28;20050;-78
2022/09/19 04:59:59;;;;;;;6.18;2.15;;;;;;;4.90;100.00;101968.88;4991663;28;20033;-76
2022/09/19 05:02:28;;;;;;;11.60;2.60;;;;;;;4.83;100.00;101957.78;5002396;28;20042;-75
2022/09/19 05:04:55;;;;;;;6.05;1.92;;;;;;;4.79;100.00;101961.63;4974418;28;20497;-77
2022/09/19 05:07:27;;;;;;;10.60;2.33;;;;;;;4.74;100.00;101955.81;5008914;28;20022;-76
2022/09/19 05:09:52;;;;;;;9.00;2.15;;;;;;;4.75;100.00;101961.00;4975384;28;20385;-76
2022/09/19 05:12:18;;;;;;;3.15;2.03;;;;;;;4.66;100.00;101956.34;4974788;28;20034;-75
2022/09/19 05:14:45;;;;;;;3.95;1.85;;;;;;;4.66;100.00;101952.78;4975023;28;20503;-76
2022/09/19 05:17:12;;;;;;;3.35;1.88;;;;;;;4.64;100.00;101952.91;5010784;28;20029;-75
2022/09/19 05:19:37;;;;;;;2.15;1.60;;;;;;;4.58;100.00;101953.34;5008807;28;20113;-75
2022/09/19 05:22:03;;;;;;;3.78;1.80;;;;;;;4.56;100.00;101952.59;4971612;28;20168;-75
2022/09/19 05:24:29;;;;;;;2.80;1.80;;;;;;;4.54;100.00;101950.03;4988459;28;20468;-76
2022/09/19 05:26:56;;;;;;;2.53;1.60;;;;;;;4.53;100.00;101952.81;4973090;28;20034;-74
2022/09/19 05:29:22;;;;;;;5.05;1.60;;;;;;;4.53;100.00;101959.00;5007775;28;20034;-75
2022/09/19 05:31:48;;;;;;;6.00;2.08;;;;;;;4.55;100.00;101953.56;4979836;28;20049;-74
2022/09/19 05:34:13;;;;;;;2.97;1.83;;;;;;;4.66;100.00;101956.34;4999451;28;20438;-75
2022/09/19 05:36:40;;;;;;;2.65;1.67;;;;;;;4.75;100.00;101961.00;4986515;28;20498;-77
2022/09/19 05:39:06;;;;;;;3.25;1.83;;;;;;;4.84;100.00;101971.03;5010327;28;20026;-75
2022/09/19 05:41:33;;;;;;;2.42;1.88;;;;;;;4.82;100.00;101964.94;4985563;28;20037;-74
2022/09/19 05:43:58;;;;;;;3.60;2.25;;;;;;;4.76;100.00;101962.72;5005169;28;20049;-76
2022/09/19 05:46:24;;;;;;;3.63;2.17;;;;;;;4.67;100.00;101960.69;4987058;28;20038;-73
2022/09/19 05:48:50;;;;;;;4.22;2.47;;;;;;;4.59;100.00;101969.22;4993070;28;20049;-77
2022/09/19 05:51:16;;;;;;;5.40;2.15;;;;;;;4.50;100.00;101966.34;5009374;28;20126;-76
2022/09/19 05:53:53;;;;;;;4.30;2.08;;;;;;;4.44;100.00;101974.75;4982242;28;20045;-77
2022/09/19 05:56:19;;;;;;;6.18;2.20;;;;;;;4.43;100.00;101965.06;4989542;28;20034;-77
2022/09/19 05:58:45;;;;;;;3.47;2.22;;;;;;;4.47;100.00;101967.41;4989540;28;20484;-75
2022/09/19 06:01:13;;;;;;;3.47;2.40;;;;;;;4.45;100.00;101952.50;4971854;28;20038;-75
2022/09/19 06:03:38;;;;;;;4.90;2.20;;;;;;;4.54;100.00;101968.69;4991357;28;20129;-76
2022/09/19 06:06:11;;;;;;;5.68;2.10;;;;;;;4.50;100.00;101971.66;4999012;28;20515;-76
2022/09/19 06:08:38;;;;;;;5.30;2.05;;;;;;;4.35;100.00;101979.75;5004512;28;20038;-75
2022/09/19 06:11:04;;;;;;;5.88;1.92;;;;;;;4.28;100.00;101978.47;4992872;28;20022;-74
2022/09/19 06:14:13;;;;;;;6.90;2.42;;;;;;;4.22;100.00;101983.38;4992761;28;20034;-76
2022/09/19 06:16:17;;;;;;;4.40;2.10;;;;;;;4.22;100.00;101980.72;4993604;28;20038;-75
2022/09/19 06:18:44;;;;;;;4.20;2.28;;;;;;;4.30;100.00;101981.88;5005476;28;20124;-75
2022/09/19 06:21:09;;;;;;;4.68;2.40;;;;;;;4.35;100.00;101990.41;5003727;28;20033;-74
2022/09/19 06:23:35;;;;;;;5.88;2.35;;;;;;;4.33;100.00;101981.66;4974540;28;20030;-75
2022/09/19 06:26:01;;;;;;;6.22;2.10;;;;;;;4.37;100.00;101988.50;4974375;28;20037;-76
2022/09/19 06:28:26;;;;;;;4.15;2.50;;;;;;;4.34;100.00;101988.72;4990867;28;20066;-75
2022/09/19 06:30:53;;;;;;;8.77;2.70;;;;;;;4.34;100.00;101993.16;4979280;28;20097;-73
2022/09/19 06:33:19;;;;;;;4.93;2.13;;;;;;;4.29;100.00;101984.66;4976185;28;20041;-75
2022/09/19 06:35:44;;;;;;;4.85;2.35;;;;;;;4.33;100.00;101994.97;4992275;28;20064;-75
2022/09/19 06:38:10;;;;;;;3.55;2.13;;;;;;;4.24;100.00;101982.31;4980812;28;20482;-74
2022/09/19 06:40:38;;;;;;;4.30;2.00;;;;;;;4.34;100.00;101983.41;5002651;28;20030;-74
2022/09/19 06:43:06;;;;;;;7.60;2.00;;;;;;;4.39;100.00;101988.38;4965120;28;20034;-75
2022/09/19 06:45:37;;;;;;;9.98;2.30;;;;;;;4.50;100.00;101982.31;5006251;28;20295;-74
2022/09/19 06:48:03;;;;;;;5.90;2.60;;;;;;;4.55;100.00;101981.06;4991245;28;20133;-75
2022/09/19 06:50:29;;;;;;;5.57;2.47;;;;;;;4.52;100.00;101969.75;5007428;28;20037;-75
2022/09/19 06:52:55;;;;;;;11.80;2.50;;;;;;;4.65;100.00;101989.25;4975314;28;20498;-75
2022/09/19 06:55:23;;;;;;;8.88;2.42;;;;;;;4.71;100.00;101987.97;4970273;28;20088;-75
2022/09/19 06:57:58;;;;;;;8.00;2.30;;;;;;;4.83;100.00;101995.09;4992103;28;20080;-75
2022/09/19 07:00:29;;;;;;;5.80;2.20;;;;;;;5.01;100.00;101987.63;5010489;28;20072;-75
2022/09/19 07:03:00;;;;;;;4.97;2.55;;;;;;;4.96;100.00;101949.78;4999848;28;20046;-77
2022/09/19 07:05:26;;;;;;;6.53;2.35;;;;;;;5.40;100.00;101993.69;4991380;28;20065;-76
2022/09/19 07:07:52;;;;;;;2.95;2.08;;;;;;;5.60;100.00;101994.91;4989615;28;20030;-74
2022/09/19 07:10:22;;;;;;;6.72;2.58;;;;;;;5.91;100.00;102006.84;5007826;28;20095;-76
2022/09/19 07:12:56;;;;;;;8.43;3.25;;;;;;;6.32;100.00;102003.72;5006133;28;20113;-75
2022/09/19 07:15:25;;;;;;;5.25;2.83;;;;;;;6.78;100.00;102001.97;5005880;28;20037;-75
2022/09/19 07:17:55;;;;;;;5.22;2.92;;;;;;;7.20;100.00;101986.16;4979777;28;20388;-75
2022/09/19 07:20:21;;;;;;;6.25;3.20;;;;;;;7.80;100.00;102011.53;5003066;28;20100;-75
2022/09/19 07:22:47;;;;;;;7.15;3.55;;;;;;;8.29;100.00;102010.13;5000622;28;20036;-76
2022/09/19 07:25:13;;;;;;;5.68;3.58;;;;;;;8.77;100.00;102014.97;5002858;28;20042;-75
2022/09/19 07:27:42;;;;;;;7.10;4.22;;;;;;;9.08;100.00;102001.56;4972324;28;20080;-76
2022/09/19 07:30:08;;;;;;;6.40;4.05;;;;;;;9.28;100.00;102012.34;4967415;28;20132;-75
2022/09/19 07:32:34;;;;;;;7.65;4.03;;;;;;;9.41;100.00;102008.41;5008125;28;20112;-75
2022/09/19 07:34:59;;;;;;;6.55;4.55;;;;;;;9.52;100.00;102014.66;4971696;28;20199;-75
2022/09/19 07:37:25;;;;;;;8.02;4.95;;;;;;;9.64;100.00;102013.56;5004062;28;20646;-73
2022/09/19 07:39:51;;;;;;;6.88;4.80;;;;;;;9.80;100.00;102015.72;5011425;28;20040;-74
2022/09/19 07:42:20;;;;;;;9.15;5.60;;;;;;;9.95;100.00;102021.50;4985322;28;20033;-74
2022/09/19 07:44:45;;;;;;;11.25;5.30;;;;;;;10.09;100.00;102024.63;4977380;28;20548;-75
2022/09/19 07:47:29;;;;;;;9.48;5.35;;;;;;;10.28;100.00;102021.09;4989199;28;20129;-77
2022/09/19 07:49:55;;;;;;;11.63;5.90;;;;;;;10.50;100.00;102019.09;5006786;28;20034;-74
2022/09/19 07:52:22;;;;;;;10.02;6.60;;;;;;;10.77;100.00;102021.88;4990708;28;20042;-74
2022/09/19 07:54:49;;;;;;;10.40;6.28;;;;;;;10.91;100.00;102011.63;4999634;28;20041;-75
2022/09/19 07:57:15;;;;;;;13.02;6.57;;;;;;;11.20;100.00;102019.59;4970749;28;20045;-75
2022/09/19 07:59:41;;;;;;;14.25;6.25;;;;;;;11.50;100.00;102031.88;5004268;28;20049;-75
2022/09/19 08:02:09;;;;;;;16.27;7.50;;;;;;;11.81;100.00;102026.16;4989368;28;20046;-75
2022/09/19 08:04:36;;;;;;;11.85;6.38;;;;;;;12.09;100.00;102032.34;4987968;28;20045;-76
2022/09/19 08:07:03;;;;;;;16.00;7.18;;;;;;;12.38;100.00;102024.00;4989573;28;20131;-73
2022/09/19 08:09:29;;;;;;;12.63;7.13;;;;;;;12.68;100.00;102028.09;5000035;28;20030;-75
2022/09/19 08:11:54;;;;;;;13.88;7.88;;;;;;;12.89;100.00;102027.72;4987352;28;20076;-76
2022/09/19 08:14:20;;;;;;;15.02;7.78;;;;;;;13.11;100.00;102030.88;4970009;28;20041;-73
2022/09/19 08:16:45;;;;;;;13.25;7.22;;;;;;;13.33;100.00;102032.19;4969802;28;20041;-78
2022/09/19 08:19:11;;;;;;;14.48;6.93;;;;;;;13.54;100.00;102029.88;4989200;28;20468;-74
2022/09/19 08:21:37;;;;;;;10.43;6.70;;;;;;;13.75;100.00;102025.91;4971872;28;20515;-76
2022/09/19 08:24:02;;;;;;;12.55;7.53;;;;;;;13.84;100.00;102023.06;4970784;28;20105;-78
2022/09/19 08:26:29;;;;;;;14.70;7.65;;;;;;;14.08;100.00;102026.81;4971472;28;20463;-78
2022/09/19 08:28:54;;;;;;;14.32;7.75;;;;;;;14.21;100.00;101996.53;5000672;28;20077;-77
2022/09/19 08:31:20;;;;;;;14.45;8.32;;;;;;;14.82;100.00;102015.91;5006190;28;20029;-76
2022/09/19 08:33:48;;;;;;;15.77;8.50;;;;;;;15.98;100.00;102015.22;4994820;28;20081;-78
2022/09/19 08:36:14;;;;;;;13.35;8.30;;;;;;;17.85;98.45;102003.31;4989550;28;20041;-77
2022/09/19 08:38:40;;;;;;;20.88;7.57;;;;;;;19.36;84.67;102016.59;5004967;28;20037;-78
2022/09/19 08:41:37;;;;;;;24.40;7.55;;;;;;;19.49;79.35;102011.19;5006978;28;20049;-78
2022/09/19 08:44:17;;;;;;;16.42;7.80;;;;;;;19.98;77.67;102021.00;5021466;28;20022;-77
2022/09/19 08:47:13;;;;;;;19.85;7.05;;;;;;;20.99;76.46;102028.97;4976408;28;20033;-79
2022/09/19 08:49:54;;;;;;;16.27;7.80;;;;;;;20.78;74.97;102031.97;4987650;28;20038;-79
2022/09/19 08:52:54;;;;;;;15.98;6.97;;;;;;;21.06;75.60;102029.81;5023829;28;20048;-78
2022/09/19 08:55:23;;;;;;;14.25;6.57;;;;;;;21.84;68.61;102017.06;5005001;28;20026;-77
2022/09/19 08:57:55;;;;;;;20.05;6.85;;;;;;;22.77;67.02;102039.09;4987123;28;20042;-78
2022/09/19 09:00:25;;;;;;;14.32;6.32;;;;;;;22.81;65.02;102031.25;4994280;28;20095;-78
2022/09/19 09:02:54;;;;;;;11.75;6.70;;;;;;;21.99;68.08;102031.28;4987378;28;20038;-78
2022/09/19 09:05:38;;;;;;;22.63;10.75;;;;;;;22.39;66.96;102044.72;5009664;28;20034;-78
2022/09/19 09:08:15;;;;;;;11.18;6.45;;;;;;;22.67;63.19;102046.97;5003089;28;20034;-78
2022/09/19 09:10:53;;;;;;;9.65;6.25;;;;;;;22.80;60.67;102044.13;5007622;28;20061;-78
2022/09/19 09:13:41;;;;;;;8.98;5.00;;;;;;;22.93;60.09;102050.53;5008429;28;20061;-78
2022/09/19 09:16:47;;;;;;;11.88;6.75;;;;;;;23.80;58.31;102036.66;4976288;28;20635;-78
2022/09/19 09:19:50;;;;;;;9.95;4.85;;;;;;;24.34;53.32;102054.00;5005295;28;20070;-78
2022/09/19 09:22:25;;;;;;;11.40;5.22;;;;;;;24.70;52.27;102046.66;5009715;28;20061;-79
2022/09/19 09:25:00;;;;;;;5.93;4.30;;;;;;;24.92;50.00;102047.72;5009152;28;20036;-80
2022/09/19 09:27:33;;;;;;;8.98;4.50;;;;;;;25.42;49.45;102047.16;4993265;28;20033;-79
2022/09/19 09:30:01;;;;;;;;;;;;;;;25.66;49.63;102044.34;5003904;28;20128;-78
2022/09/19 09:32:40;;;;;;;9.80;6.07;;;;;;;25.92;46.67;102045.69;5008062;28;19926;-80
2022/09/19 09:35:14;;;;;;;7.20;5.43;;;;;;;25.99;45.92;102035.34;4985691;28;20026;-79
2022/09/19 09:37:46;;;;;;;9.40;5.65;;;;;;;26.23;45.37;102044.31;5021288;28;20084;-80
2022/09/19 09:41:44;;;;;;;7.88;6.18;;;;;;;25.93;43.92;102052.03;5007336;28;20621;-80
2022/09/19 09:43:05;;;;;;;14.20;7.80;;;;;;;25.90;43.84;102045.09;4992204;28;20064;-79
2022/09/19 09:45:34;;;;;;;11.02;6.32;;;;;;;26.12;42.23;102045.22;4991945;28;20041;-78
2022/09/19 09:48:24;;;;;;;7.18;5.28;;;;;;;26.47;42.40;102050.50;5003319;28;20168;-78
2022/09/19 09:51:09;;;;;;;8.75;5.90;;;;;;;26.89;40.63;102030.75;5006107;28;20041;-79
2022/09/19 09:53:37;;;;;;;7.47;4.40;;;;;;;27.38;40.17;102046.59;4992672;28;20042;-78
2022/09/19 09:56:17;;;;;;;8.77;5.07;;;;;;;27.10;38.97;102047.59;5008254;28;20027;-79
2022/09/19 09:58:54;;;;;;;6.35;3.90;;;;;;;26.77;39.59;102052.09;4993431;28;20051;-78
2022/09/19 10:04:48;;;;;;;5.97;4.20;;;;;;;26.24;38.57;102051.50;4992443;28;20042;-79
2022/09/19 10:07:40;;;;;;;5.47;4.07;;;;;;;26.60;38.84;102041.09;4991693;28;20058;-78
2022/09/19 10:10:14;;;;;;;7.78;4.28;;;;;;;27.22;37.66;102039.22;5007711;28;20030;-79
2022/09/19 10:12:58;;;;;;;7.82;4.68;;;;;;;27.88;36.58;102028.13;4991943;28;20121;-78
2022/09/19 10:15:25;;;;;;;6.00;4.00;;;;;;;28.46;34.21;102031.97;4973503;28;20370;-79
2022/09/19 10:18:07;;;;;;;7.50;4.22;;;;;;;28.10;34.68;102041.84;5004531;28;20030;-78
2022/09/19 10:20:49;;;;;;;5.68;3.78;;;;;;;28.55;33.16;102044.19;4972071;28;20118;-79
2022/09/19 10:23:23;;;;;;;4.80;3.90;;;;;;;28.70;31.62;102037.94;5006423;28;20120;-79
2022/09/19 10:26:19;;;;;;;5.15;3.67;;;;;;;28.74;32.05;102043.75;4993411;28;20056;-79
2022/09/19 10:28:59;;;;;;;7.50;4.30;;;;;;;28.76;31.90;102038.78;4986968;28;20049;-78
2022/09/19 10:31:34;;;;;;;7.63;4.15;;;;;;;29.11;31.17;102046.53;4993140;28;20046;-78
2022/09/19 10:34:04;;;;;;;6.97;4.40;;;;;;;29.42;30.35;102047.47;4983191;28;20053;-79
2022/09/19 10:36:34;;;;;;;6.45;4.32;;;;;;;29.24;30.78;102032.19;5006182;28;20048;-79
2022/09/19 10:39:13;;;;;;;5.93;4.32;;;;;;;29.27;29.38;102037.16;4982022;28;20050;-79
2022/09/19 10:41:40;;;;;;;6.97;4.13;;;;;;;29.14;29.32;102027.41;4991282;28;20037;-80
2022/09/19 10:44:17;;;;;;;8.38;3.90;;;;;;;28.66;29.41;102026.56;5008738;28;20053;-79
2022/09/19 10:46:46;;;;;;;7.00;4.15;;;;;;;27.69;31.30;102030.38;4983640;28;20050;-79
2022/09/19 10:49:20;;;;;;;5.85;5.07;;;;;;;27.87;30.06;102026.47;5008542;28;20123;-79
2022/09/19 10:51:48;;;;;;;6.30;4.40;;;;;;;28.13;29.77;102025.59;5003419;28;20045;-79
2022/09/19 10:54:35;;;;;;;8.00;5.90;;;;;;;28.80;29.12;102024.16;4987905;28;20495;-79
2022/09/19 10:57:09;;;;;;;7.45;5.00;;;;;;;29.45;30.41;102021.13;5007243;28;20033;-79
2022/09/19 10:59:39;;;;;;;5.90;4.20;;;;;;;30.47;27.65;102023.25;4987712;28;20039;-79
2022/09/19 11:02:16;;;;;;;7.57;4.90;;;;;;;30.55;27.63;102028.22;5008542;28;20045;-79
2022/09/19 11:04:59;;;;;;;5.78;4.85;;;;;;;28.22;28.39;102006.56;5019060;28;20052;-79
2022/09/19 11:07:29;;;;;;;6.68;4.50;;;;;;;28.72;29.47;102005.28;4983081;28;20044;-79
2022/09/19 11:09:59;;;;;;;6.35;4.18;;;;;;;28.90;28.50;102021.44;4991902;28;20490;-79
2022/09/19 11:12:31;;;;;;;5.90;4.22;;;;;;;28.71;28.72;102022.97;5005614;28;20034;-79
2022/09/19 11:14:58;;;;;;;6.43;4.80;;;;;;;28.73;29.43;102017.19;4973529;28;20050;-79
2022/09/19 11:17:50;;;;;;;6.53;4.60;;;;;;;28.58;28.76;102017.91;4993185;28;20091;-79
2022/09/19 11:20:30;;;;;;;5.40;3.92;;;;;;;28.38;27.78;102030.47;4971861;28;20026;-79
2022/09/19 11:23:09;;;;;;;5.38;4.05;;;;;;;28.04;28.31;102022.44;4992928;28;20046;-79
2022/09/19 11:26:03;;;;;;;5.68;4.22;;;;;;;28.32;28.37;102027.97;5001999;28;20038;-78
2022/09/19 11:28:35;;;;;;;5.45;3.53;;;;;;;28.94;28.49;102036.41;5006726;28;20038;-79
2022/09/19 11:31:28;;;;;;;5.38;4.32;;;;;;;28.70;27.89;102027.69;4990762;28;20041;-80
2022/09/19 11:33:57;;;;;;;5.50;4.28;;;;;;;29.24;27.35;102034.09;5005364;28;20116;-80
2022/09/19 11:36:39;;;;;;;6.55;3.88;;;;;;;29.00;27.08;102017.88;4986824;28;20033;-80
2022/09/19 11:39:23;;;;;;;5.10;4.03;;;;;;;28.58;27.90;102021.53;5007365;28;20061;-79
2022/09/19 11:41:55;;;;;;;7.25;4.40;;;;;;;28.67;27.94;102027.41;5003991;28;20049;-80
2022/09/19 11:44:32;;;;;;;5.47;4.15;;;;;;;29.40;27.68;102030.28;5004511;28;20085;-80
2022/09/19 11:47:44;;;;;;;5.22;4.18;;;;;;;29.41;27.69;102033.88;4980577;28;20475;-80
2022/09/19 11:50:24;;;;;;;5.20;3.78;;;;;;;30.36;26.57;102014.94;4906282;29;20514;-79